Bachir Chihani — 7TJA — position and weather

sailwx.info

Track history (hours):
 
Tides and Currents Weather Stations Pressure Air Temp Water Temp Dewpoint Dewpoint Depression Visibility Wind Speed Wind Dir Waves Ship Positions

Bachir Chihani

Last reported at 2015-Jul-03 19:33 UTC. Time now 2015-Jul-03 20:23 UTC.
Position N 36°01' E 014°50'.

Length 280 m; draft 9.6 m.

Type: Ship (hazmat cat C). MMSI: 605106010.

Date/timePositionNaut miles runAvg speedWind from/ knotsBaromVisibWave heightAir tempDewpointWater temp
2015-Jul-03 19:33N 36°01' E 014°50'2 1.6
2015-Jul-03 18:33N 35°60' E 014°49'1 1.2
2015-Jul-03 17:34N 35°59' E 014°48'1 1.4
2015-Jul-03 16:33N 35°60' E 014°47'1 1.3
2015-Jul-03 15:33N 36°01' E 014°46'1 1.2
2015-Jul-03 14:33N 36°01' E 014°47'1 1.4
2015-Jul-03 13:33N 36°01' E 014°49'1 1.0
2015-Jul-03 12:33N 35°60' E 014°49'1 0.7
2015-Jul-03 11:33N 35°59' E 014°49'1 0.6
2015-Jul-03 10:33N 35°58' E 014°49'1 0.6
2015-Jul-03 09:33N 35°58' E 014°49'1 1.3
2015-Jul-03 08:33N 35°59' E 014°48'1 1.4
2015-Jul-03 07:33N 35°60' E 014°47'2 2.1
2015-Jul-03 06:33N 36°01' E 014°49'1 1.0
2015-Jul-03 05:34N 36°00' E 014°50'1 1.1
2015-Jul-03 04:33N 35°59' E 014°49'1 1.0
2015-Jul-03 03:33N 35°58' E 014°49'2 1.8
2015-Jul-03 02:33N 35°59' E 014°47'2 1.8
2015-Jul-03 01:33N 36°01' E 014°47'2 1.8
2015-Jul-03 00:33N 36°01' E 014°49'1 1.3
2015-Jul-02 23:33N 36°00' E 014°50'1 1.4
2015-Jul-02 22:33N 35°59' E 014°49'1 1.1
2015-Jul-02 21:33N 35°59' E 014°48'2 1.6
2015-Jul-02 20:34N 35°60' E 014°47'2 2.1
2015-Jul-02 19:34N 36°02' E 014°47'1 1.4
2015-Jul-02 18:33N 36°02' E 014°49'2 1.6
2015-Jul-02 17:33N 35°60' E 014°49'1 1.3
2015-Jul-02 16:33N 35°59' E 014°49'1 1.3
2015-Jul-02 15:33N 35°59' E 014°47'1 1.2
2015-Jul-02 14:34N 35°59' E 014°48'1 0.7
2015-Jul-02 13:33N 35°59' E 014°49'1 1.4
2015-Jul-02 12:33N 35°59' E 014°47'2 1.9
2015-Jul-02 11:33N 36°01' E 014°46'1 1.4
2015-Jul-02 10:33N 36°02' E 014°48'1 1.3
2015-Jul-02 09:33N 36°01' E 014°49'2 1.5
2015-Jul-02 08:33N 35°60' E 014°50'1 1.2
2015-Jul-02 07:33N 35°59' E 014°49'1 0.9
2015-Jul-02 06:34N 35°59' E 014°47'1 1.0
2015-Jul-02 05:34N 35°59' E 014°47'1 0.9
2015-Jul-02 04:33N 36°00' E 014°46'1 1.1
2015-Jul-02 03:33N 36°01' E 014°46'2 2.2
2015-Jul-02 02:34N 36°01' E 014°49'1 1.3
2015-Jul-02 01:33N 36°00' E 014°50'1 1.3
2015-Jul-02 00:33N 35°59' E 014°49'1 0.8
2015-Jul-01 23:33N 35°58' E 014°49'1 1.2
2015-Jul-01 22:33N 35°59' E 014°47'2 1.8
2015-Jul-01 21:33N 36°01' E 014°47'2 1.7
2015-Jul-01 20:33N 36°01' E 014°48'1 0.9
2015-Jul-01 19:33N 36°01' E 014°49'1 1.0
2015-Jul-01 18:33N 35°60' E 014°49'1 1.1
2015-Jul-01 17:33N 35°59' E 014°49'1 1.5
2015-Jul-01 16:33N 35°59' E 014°47'2 2.1
2015-Jul-01 15:33N 36°01' E 014°46'1 1.3
2015-Jul-01 14:33N 36°02' E 014°47'2 1.6
2015-Jul-01 13:33N 36°01' E 014°49'2 1.5
2015-Jul-01 12:34N 35°59' E 014°50'1 1.1
2015-Jul-01 11:33N 35°58' E 014°49'1 1.4
2015-Jul-01 10:33N 35°59' E 014°48'1 1.5
2015-Jul-01 09:33N 36°00' E 014°46'1 1.4
2015-Jul-01 08:33N 36°01' E 014°46'1 0.9
2015-Jul-01 07:33N 36°02' E 014°47'1 0.9
2015-Jul-01 06:33N 36°01' E 014°48'2 1.6
2015-Jul-01 05:34N 36°00' E 014°49'1 1.1
2015-Jul-01 04:33N 35°59' E 014°50'1 1.1
2015-Jul-01 03:33N 35°59' E 014°49'1 0.7
2015-Jul-01 02:33N 35°59' E 014°49'1 0.6
2015-Jul-01 01:33N 35°59' E 014°49'1 1.0
2015-Jul-01 00:33N 35°58' E 014°48'2 2.0
2015-Jun-30 23:34N 36°00' E 014°47'1 1.4
2015-Jun-30 22:34N 36°00' E 014°49'1 1.0
2015-Jun-30 21:33N 36°00' E 014°50'1 0.8
2015-Jun-30 20:34N 35°59' E 014°50'1 1.2
2015-Jun-30 19:33N 35°58' E 014°49'2 1.7
2015-Jun-30 18:33N 35°59' E 014°47'1 0.9
2015-Jun-30 17:34N 36°00' E 014°48'1 0.9
2015-Jun-30 16:33N 36°01' E 014°49'2 1.7
2015-Jun-30 15:34N 35°59' E 014°49'1 1.3
2015-Jun-30 14:33N 35°59' E 014°47'1 1.2
2015-Jun-30 13:34N 36°00' E 014°47'2 1.8
2015-Jun-30 12:33N 36°00' E 014°49'1 1.4
2015-Jun-30 11:34N 35°59' E 014°49'1 1.2
2015-Jun-30 10:33N 35°59' E 014°47'1 1.3
2015-Jun-30 09:33N 35°60' E 014°46'1 1.4
2015-Jun-30 08:33N 36°00' E 014°47'1 0.7
2015-Jun-30 07:33N 35°60' E 014°48'1 0.5
2015-Jun-30 06:33N 35°59' E 014°48'1 0.5
2015-Jun-30 05:33N 35°59' E 014°49'0 0.5
2015-Jun-30 04:33N 35°58' E 014°48'1 1.1
2015-Jun-30 03:33N 35°59' E 014°47'1 1.3
2015-Jun-30 02:34N 36°00' E 014°48'1 0.8
2015-Jun-30 01:33N 36°00' E 014°49'1 0.8
2015-Jun-30 00:33N 35°60' E 014°49'1 1.1
2015-Jun-29 23:33N 35°59' E 014°49'1 1.1
2015-Jun-29 22:33N 35°59' E 014°48'1 0.9
2015-Jun-29 21:33N 35°60' E 014°47'1 0.8
2015-Jun-29 20:34N 36°00' E 014°47'1 0.9
2015-Jun-29 19:34N 36°00' E 014°48'1 1.0
2015-Jun-29 18:33N 35°59' E 014°48'0 0.4
2015-Jun-29 17:33N 35°59' E 014°47'1 0.8
2015-Jun-29 16:34N 35°60' E 014°47'1 1.0
2015-Jun-29 15:34N 36°00' E 014°48'1 0.9
2015-Jun-29 14:33N 35°60' E 014°49'1 0.6
2015-Jun-29 13:33N 35°59' E 014°48'0 0.5
2015-Jun-29 12:34N 35°59' E 014°48'0 0.4
2015-Jun-29 11:33N 35°58' E 014°48'0 0.3
2015-Jun-29 10:33N 35°58' E 014°48'0 0.4
2015-Jun-29 09:34N 35°58' E 014°48'0 0.5
2015-Jun-29 08:33N 35°59' E 014°48'1 1.4
2015-Jun-29 07:33N 35°60' E 014°47'1 0.8
2015-Jun-29 06:33N 35°60' E 014°48'1 1.1
2015-Jun-29 05:34N 35°59' E 014°49'1 1.0
2015-Jun-29 04:33N 35°59' E 014°48'1 1.4
2015-Jun-29 03:34N 36°00' E 014°48'1 1.1
2015-Jun-29 02:33N 35°59' E 014°49'1 1.3
2015-Jun-29 01:34N 35°59' E 014°47'1 1.4
2015-Jun-29 00:34N 36°00' E 014°48'1 1.1
2015-Jun-28 23:34N 35°59' E 014°48'1 1.0
2015-Jun-28 22:33N 35°60' E 014°48'1 1.1
2015-Jun-28 21:34N 35°59' E 014°49'1 0.7
2015-Jun-28 20:33N 35°59' E 014°48'1 0.7
2015-Jun-28 19:34N 35°59' E 014°47'2 1.6
2015-Jun-28 18:33N 36°00' E 014°48'1 0.8
2015-Jun-28 17:33N 35°59' E 014°49'1 0.6
2015-Jun-28 16:33N 35°59' E 014°48'1 0.7
2015-Jun-28 15:33N 35°59' E 014°48'1 0.5
2015-Jun-28 14:34N 35°59' E 014°47'1 1.4
2015-Jun-28 13:34N 35°60' E 014°48'1 0.7
2015-Jun-28 12:33N 35°59' E 014°48'1 0.6
2015-Jun-28 11:33N 35°59' E 014°49'1 0.8
2015-Jun-28 10:33N 35°58' E 014°48'2 1.6
2015-Jun-28 09:33N 35°60' E 014°47'1 1.4
2015-Jun-28 08:33N 36°00' E 014°49'1 1.1
2015-Jun-28 07:33N 35°59' E 014°49'2 1.6
2015-Jun-28 06:33N 35°59' E 014°47'1 1.2
2015-Jun-28 05:33N 36°00' E 014°48'1 0.7
2015-Jun-28 04:33N 35°60' E 014°49'1 0.9
2015-Jun-28 03:33N 35°60' E 014°48'1 0.8
2015-Jun-28 02:33N 35°60' E 014°47'1 1.1
2015-Jun-28 01:33N 36°00' E 014°48'1 0.8
2015-Jun-28 00:33N 35°59' E 014°48'1 0.6
2015-Jun-27 23:34N 35°59' E 014°48'1 0.6
2015-Jun-27 22:33N 35°59' E 014°48'1 0.7
2015-Jun-27 21:33N 35°59' E 014°47'0 0.4
2015-Jun-27 20:33N 35°59' E 014°47'0 0.5
2015-Jun-27 19:34N 35°59' E 014°48'4 3.7
2015-Jun-27 18:33N 35°58' E 014°52'4 3.8
2015-Jun-27 17:33N 35°57' E 014°57'4 3.8
2015-Jun-27 16:33N 35°55' E 015°01'4 3.8
2015-Jun-27 15:33N 35°53' E 015°05'4 4.0
2015-Jun-27 14:34N 35°51' E 015°09'4 4.3
2015-Jun-27 13:33N 35°51' E 015°15'5 4.6
2015-Jun-27 12:33N 35°51' E 015°20'5 4.6
2015-Jun-27 11:33N 35°52' E 015°26'  
Track history (hours):
 
Tides and Currents Weather Stations Pressure Air Temp Water Temp Dewpoint Dewpoint Depression Visibility Wind Speed Wind Dir Waves Ship Positions

Bachir Chihani

Last reported at 2015-Jul-03 19:33 UTC. Time now 2015-Jul-03 20:23 UTC.
Position N 36°01' E 014°50'.

Length 280 m; draft 9.6 m.

Type: Ship (hazmat cat C). MMSI: 605106010.

Date/timePositionNaut miles runAvg speedWind from/ knotsBaromVisibWave heightAir tempDewpointWater temp
2015-Jul-03 19:33N 36°01' E 014°50'2 1.6
2015-Jul-03 18:33N 35°60' E 014°49'1 1.2
2015-Jul-03 17:34N 35°59' E 014°48'1 1.4
2015-Jul-03 16:33N 35°60' E 014°47'1 1.3
2015-Jul-03 15:33N 36°01' E 014°46'1 1.2
2015-Jul-03 14:33N 36°01' E 014°47'1 1.4
2015-Jul-03 13:33N 36°01' E 014°49'1 1.0
2015-Jul-03 12:33N 35°60' E 014°49'1 0.7
2015-Jul-03 11:33N 35°59' E 014°49'1 0.6
2015-Jul-03 10:33N 35°58' E 014°49'1 0.6
2015-Jul-03 09:33N 35°58' E 014°49'1 1.3
2015-Jul-03 08:33N 35°59' E 014°48'1 1.4
2015-Jul-03 07:33N 35°60' E 014°47'2 2.1
2015-Jul-03 06:33N 36°01' E 014°49'1 1.0
2015-Jul-03 05:34N 36°00' E 014°50'1 1.1
2015-Jul-03 04:33N 35°59' E 014°49'1 1.0
2015-Jul-03 03:33N 35°58' E 014°49'2 1.8
2015-Jul-03 02:33N 35°59' E 014°47'2 1.8
2015-Jul-03 01:33N 36°01' E 014°47'2 1.8
2015-Jul-03 00:33N 36°01' E 014°49'1 1.3
2015-Jul-02 23:33N 36°00' E 014°50'1 1.4
2015-Jul-02 22:33N 35°59' E 014°49'1 1.1
2015-Jul-02 21:33N 35°59' E 014°48'2 1.6
2015-Jul-02 20:34N 35°60' E 014°47'2 2.1
2015-Jul-02 19:34N 36°02' E 014°47'1 1.4
2015-Jul-02 18:33N 36°02' E 014°49'2 1.6
2015-Jul-02 17:33N 35°60' E 014°49'1 1.3
2015-Jul-02 16:33N 35°59' E 014°49'1 1.3
2015-Jul-02 15:33N 35°59' E 014°47'1 1.2
2015-Jul-02 14:34N 35°59' E 014°48'1 0.7
2015-Jul-02 13:33N 35°59' E 014°49'1 1.4
2015-Jul-02 12:33N 35°59' E 014°47'2 1.9
2015-Jul-02 11:33N 36°01' E 014°46'1 1.4
2015-Jul-02 10:33N 36°02' E 014°48'1 1.3
2015-Jul-02 09:33N 36°01' E 014°49'2 1.5
2015-Jul-02 08:33N 35°60' E 014°50'1 1.2
2015-Jul-02 07:33N 35°59' E 014°49'1 0.9
2015-Jul-02 06:34N 35°59' E 014°47'1 1.0
2015-Jul-02 05:34N 35°59' E 014°47'1 0.9
2015-Jul-02 04:33N 36°00' E 014°46'1 1.1
2015-Jul-02 03:33N 36°01' E 014°46'2 2.2
2015-Jul-02 02:34N 36°01' E 014°49'1 1.3
2015-Jul-02 01:33N 36°00' E 014°50'1 1.3
2015-Jul-02 00:33N 35°59' E 014°49'1 0.8
2015-Jul-01 23:33N 35°58' E 014°49'1 1.2
2015-Jul-01 22:33N 35°59' E 014°47'2 1.8
2015-Jul-01 21:33N 36°01' E 014°47'2 1.7
2015-Jul-01 20:33N 36°01' E 014°48'1 0.9
2015-Jul-01 19:33N 36°01' E 014°49'1 1.0
2015-Jul-01 18:33N 35°60' E 014°49'1 1.1
2015-Jul-01 17:33N 35°59' E 014°49'1 1.5
2015-Jul-01 16:33N 35°59' E 014°47'2 2.1
2015-Jul-01 15:33N 36°01' E 014°46'1 1.3
2015-Jul-01 14:33N 36°02' E 014°47'2 1.6
2015-Jul-01 13:33N 36°01' E 014°49'2 1.5
2015-Jul-01 12:34N 35°59' E 014°50'1 1.1
2015-Jul-01 11:33N 35°58' E 014°49'1 1.4
2015-Jul-01 10:33N 35°59' E 014°48'1 1.5
2015-Jul-01 09:33N 36°00' E 014°46'1 1.4
2015-Jul-01 08:33N 36°01' E 014°46'1 0.9
2015-Jul-01 07:33N 36°02' E 014°47'1 0.9
2015-Jul-01 06:33N 36°01' E 014°48'2 1.6
2015-Jul-01 05:34N 36°00' E 014°49'1 1.1
2015-Jul-01 04:33N 35°59' E 014°50'1 1.1
2015-Jul-01 03:33N 35°59' E 014°49'1 0.7
2015-Jul-01 02:33N 35°59' E 014°49'1 0.6
2015-Jul-01 01:33N 35°59' E 014°49'1 1.0
2015-Jul-01 00:33N 35°58' E 014°48'2 2.0
2015-Jun-30 23:34N 36°00' E 014°47'1 1.4
2015-Jun-30 22:34N 36°00' E 014°49'1 1.0
2015-Jun-30 21:33N 36°00' E 014°50'1 0.8
2015-Jun-30 20:34N 35°59' E 014°50'1 1.2
2015-Jun-30 19:33N 35°58' E 014°49'2 1.7
2015-Jun-30 18:33N 35°59' E 014°47'1 0.9
2015-Jun-30 17:34N 36°00' E 014°48'1 0.9
2015-Jun-30 16:33N 36°01' E 014°49'2 1.7
2015-Jun-30 15:34N 35°59' E 014°49'1 1.3
2015-Jun-30 14:33N 35°59' E 014°47'1 1.2
2015-Jun-30 13:34N 36°00' E 014°47'2 1.8
2015-Jun-30 12:33N 36°00' E 014°49'1 1.4
2015-Jun-30 11:34N 35°59' E 014°49'1 1.2
2015-Jun-30 10:33N 35°59' E 014°47'1 1.3
2015-Jun-30 09:33N 35°60' E 014°46'1 1.4
2015-Jun-30 08:33N 36°00' E 014°47'1 0.7
2015-Jun-30 07:33N 35°60' E 014°48'1 0.5
2015-Jun-30 06:33N 35°59' E 014°48'1 0.5
2015-Jun-30 05:33N 35°59' E 014°49'0 0.5
2015-Jun-30 04:33N 35°58' E 014°48'1 1.1
2015-Jun-30 03:33N 35°59' E 014°47'1 1.3
2015-Jun-30 02:34N 36°00' E 014°48'1 0.8
2015-Jun-30 01:33N 36°00' E 014°49'1 0.8
2015-Jun-30 00:33N 35°60' E 014°49'1 1.1
2015-Jun-29 23:33N 35°59' E 014°49'1 1.1
2015-Jun-29 22:33N 35°59' E 014°48'1 0.9
2015-Jun-29 21:33N 35°60' E 014°47'1 0.8
2015-Jun-29 20:34N 36°00' E 014°47'1 0.9
2015-Jun-29 19:34N 36°00' E 014°48'1 1.0
2015-Jun-29 18:33N 35°59' E 014°48'0 0.4
2015-Jun-29 17:33N 35°59' E 014°47'1 0.8
2015-Jun-29 16:34N 35°60' E 014°47'1 1.0
2015-Jun-29 15:34N 36°00' E 014°48'1 0.9
2015-Jun-29 14:33N 35°60' E 014°49'1 0.6
2015-Jun-29 13:33N 35°59' E 014°48'0 0.5
2015-Jun-29 12:34N 35°59' E 014°48'0 0.4
2015-Jun-29 11:33N 35°58' E 014°48'0 0.3
2015-Jun-29 10:33N 35°58' E 014°48'0 0.4
2015-Jun-29 09:34N 35°58' E 014°48'0 0.5
2015-Jun-29 08:33N 35°59' E 014°48'1 1.4
2015-Jun-29 07:33N 35°60' E 014°47'1 0.8
2015-Jun-29 06:33N 35°60' E 014°48'1 1.1
2015-Jun-29 05:34N 35°59' E 014°49'1 1.0
2015-Jun-29 04:33N 35°59' E 014°48'1 1.4
2015-Jun-29 03:34N 36°00' E 014°48'1 1.1
2015-Jun-29 02:33N 35°59' E 014°49'1 1.3
2015-Jun-29 01:34N 35°59' E 014°47'1 1.4
2015-Jun-29 00:34N 36°00' E 014°48'1 1.1
2015-Jun-28 23:34N 35°59' E 014°48'1 1.0
2015-Jun-28 22:33N 35°60' E 014°48'1 1.1
2015-Jun-28 21:34N 35°59' E 014°49'1 0.7
2015-Jun-28 20:33N 35°59' E 014°48'1 0.7
2015-Jun-28 19:34N 35°59' E 014°47'2 1.6
2015-Jun-28 18:33N 36°00' E 014°48'1 0.8
2015-Jun-28 17:33N 35°59' E 014°49'1 0.6
2015-Jun-28 16:33N 35°59' E 014°48'1 0.7
2015-Jun-28 15:33N 35°59' E 014°48'1 0.5
2015-Jun-28 14:34N 35°59' E 014°47'1 1.4
2015-Jun-28 13:34N 35°60' E 014°48'1 0.7
2015-Jun-28 12:33N 35°59' E 014°48'1 0.6
2015-Jun-28 11:33N 35°59' E 014°49'1 0.8
2015-Jun-28 10:33N 35°58' E 014°48'2 1.6
2015-Jun-28 09:33N 35°60' E 014°47'1 1.4
2015-Jun-28 08:33N 36°00' E 014°49'1 1.1
2015-Jun-28 07:33N 35°59' E 014°49'2 1.6
2015-Jun-28 06:33N 35°59' E 014°47'1 1.2
2015-Jun-28 05:33N 36°00' E 014°48'1 0.7
2015-Jun-28 04:33N 35°60' E 014°49'1 0.9
2015-Jun-28 03:33N 35°60' E 014°48'1 0.8
2015-Jun-28 02:33N 35°60' E 014°47'1 1.1
2015-Jun-28 01:33N 36°00' E 014°48'1 0.8
2015-Jun-28 00:33N 35°59' E 014°48'1 0.6
2015-Jun-27 23:34N 35°59' E 014°48'1 0.6
2015-Jun-27 22:33N 35°59' E 014°48'1 0.7
2015-Jun-27 21:33N 35°59' E 014°47'0 0.4
2015-Jun-27 20:33N 35°59' E 014°47'0 0.5
2015-Jun-27 19:34N 35°59' E 014°48'4 3.7
2015-Jun-27 18:33N 35°58' E 014°52'4 3.8
2015-Jun-27 17:33N 35°57' E 014°57'4 3.8
2015-Jun-27 16:33N 35°55' E 015°01'4 3.8
2015-Jun-27 15:33N 35°53' E 015°05'4 4.0
2015-Jun-27 14:34N 35°51' E 015°09'4 4.3
2015-Jun-27 13:33N 35°51' E 015°15'5 4.6
2015-Jun-27 12:33N 35°51' E 015°20'5 4.6
2015-Jun-27 11:33N 35°52' E 015°26'  

Dump ship's entire track history